Alum Bridge, WV

7:42 PM EDT on May 27, 2017 (GMT -0400)
Quirky Towers, Vadis | | Change Station
Active Advisory: Severe Thunderstorm Watch

Elev 837 ft 39.04 °N, 80.71 °W | Updated 55 seconds ago

Mostly Cloudy
Mostly Cloudy
69.1 °F
Feels Like 69.1 °F
N
0.0
Wind Variable Wind from West
Gusts 0.0 mph

Today
High -- | Low -- °F
--% Chance of Precip.
Yesterday
High -- | Low -- °F
Precip. -- in
Pressure 29.91 in
Visibility 10.0 miles
Clouds Few 3400 ft
Dew Point 69 °F
Humidity 99%
Rainfall 0.71 in
Snow Depth Not available.
6:00 AM 8:39 PM
Waxing Crescent, 7% visible
METAR KW22 272315Z AUTO 20006KT 10SM FEW034 20/17 A2991 RMK AO2
Pressure 29.91 in
Visibility 10.0 miles
Clouds Few 3400 ft
Dew Point 69 °F
Humidity 99%
Rainfall 0.71 in
Snow Depth Not available.
6:00 AM 8:39 PM
Waxing Crescent, 7% visible
METAR KW22 272315Z AUTO 20006KT 10SM FEW034 20/17 A2991 RMK AO2

Get Your Daily Forecast Email!

Thanks for signing up!

Be on the lookout for a verification email in your inbox.

You'll start receiving severe weather alerts in your inbox..

×

10-Day Weather Forecast

Almanac

Astronomy

May. 27, 2017 Rise Set
Actual Time
Civil Twilight
Nautical Twilight
Astronomical Twilight
Moon
Length of Visible Light
Length of Day
Tomorrow will be .
, % of the Moon is Illuminated

Today's Extremes

State Highs State Lows

Community

WunderPhotos

Category 6

Welcome to Category 6. This is the collective home for Weather Underground's featured writeups by Dr. Jeff Masters (right), Bob Henson (left), Chris Burt, and other regular contributors.

Nearby

Air Quality

  Air Quality AQ Index Pollutant
Not available.

Snow Depth

Station Depth Elevation

Earthquake Activity

City Distance Mag. Time & Date
Minimum magnitude displayed is 2.5.

Coastal Water Temperatures

Place Temperature

Stations

Nearby Weather Stations

Station Location Temp. Windchill Dew Point Humidity Wind Precip. Elev Updated Type
                   

Watches & Warnings

Severe Thunderstorm Watch
Issued: 7:24 PM EDT May. 27, 2017 – National Weather Service

Severe Thunderstorm Watch 277 remains in effect until 1000 PM EDT

WV
. West Virginia counties included are

Barbour Boone Braxton
Cabell Calhoun Clay
Doddridge Fayette Gilmer
Harrison Jackson Kanawha
Lewis Lincoln Logan
McDowell Mason Mingo
Nicholas Pocahontas Putnam
Raleigh Randolph Ritchie
Roane Taylor Upshur
Wayne Webster Wirt
wood Wyoming